createdAt,value
2019-05-06T00:02:34.092Z,99610.17
2019-05-06T00:08:40.454Z,99608.69
2019-05-06T00:14:44.997Z,99602.94
2019-05-06T00:20:49.896Z,99601.23
2019-05-06T00:26:57.694Z,99600.30
2019-05-06T00:33:04.235Z,99607.58
2019-05-06T00:39:25.972Z,99604.92
2019-05-06T00:45:30.520Z,99614.36
2019-05-06T00:51:35.065Z,99619.76
2019-05-06T00:57:45.808Z,99615.81
2019-05-06T01:03:50.355Z,99624.25
2019-05-06T01:09:54.898Z,99619.85
2019-05-06T01:15:59.457Z,99618.80
2019-05-06T01:22:04.661Z,99614.89
2019-05-06T01:28:09.322Z,99619.70
2019-05-06T01:34:13.929Z,99621.30
2019-05-06T01:40:29.349Z,99627.67
2019-05-06T01:46:34.109Z,99625.95
2019-05-06T01:52:38.713Z,99620.50
2019-05-06T01:58:43.974Z,99630.63
2019-05-06T02:04:48.577Z,99629.11
2019-05-06T02:10:54.567Z,99633.17
2019-05-06T02:16:59.301Z,99636.77
2019-05-06T02:23:05.493Z,99641.59
2019-05-06T02:29:15.228Z,99638.04
2019-05-06T02:35:27.428Z,99638.52
2019-05-06T02:41:33.717Z,99644.05
2019-05-06T02:47:43.158Z,99640.35
2019-05-06T02:53:47.856Z,99648.07
2019-05-06T02:59:55.223Z,99643.91
2019-05-06T03:05:58.694Z,99648.37
2019-05-06T03:12:03.911Z,99648.42
2019-05-06T03:18:08.695Z,99654.05
2019-05-06T03:24:15.764Z,99661.92
2019-05-06T03:30:24.984Z,99656.02
2019-05-06T03:36:33.063Z,99644.03
2019-05-06T03:42:33.510Z,99644.70
2019-05-06T03:48:48.723Z,99649.11
2019-05-06T03:54:53.982Z,99648.95
2019-05-06T04:00:59.118Z,99659.81
2019-05-06T04:07:04.050Z,99650.83
2019-05-06T04:13:13.511Z,99652.31
2019-05-06T04:19:16.983Z,99654.03
2019-05-06T04:25:43.860Z,99670.16
2019-05-06T04:31:49.367Z,99671.06
2019-05-06T04:37:54.204Z,99667.02
2019-05-06T04:43:58.873Z,99675.50
2019-05-06T04:50:04.750Z,99672.67
2019-05-06T04:56:10.108Z,99668.02
2019-05-06T05:02:15.042Z,99674.66
2019-05-06T05:08:22.332Z,99672.34
2019-05-06T05:14:29.314Z,99679.37
2019-05-06T05:20:39.707Z,99681.58
2019-05-06T05:26:45.090Z,99686.20
2019-05-06T05:32:47.891Z,99687.85
2019-05-06T05:38:52.522Z,99688.22
2019-05-06T05:44:57.125Z,99694.66
2019-05-06T05:51:03.360Z,99691.20
2019-05-06T05:57:08.195Z,99691.97
2019-05-06T06:03:12.854Z,99690.48
2019-05-06T06:09:17.487Z,99693.64
2019-05-06T06:15:42.233Z,99701.55
2019-05-06T06:21:48.193Z,99696.75
2019-05-06T06:27:53.229Z,99692.12
2019-05-06T06:34:05.666Z,99699.78
2019-05-06T06:40:13.106Z,99690.80
2019-05-06T06:46:18.089Z,99690.79
2019-05-06T06:52:23.262Z,99692.37
2019-05-06T06:58:32.330Z,99689.03
2019-05-06T07:04:38.888Z,99694.50
2019-05-06T07:10:43.704Z,99695.38
2019-05-06T07:16:48.351Z,99689.55
2019-05-06T07:22:53.090Z,99694.61
2019-05-06T07:28:57.632Z,99694.74
2019-05-06T07:35:02.484Z,99701.24
2019-05-06T07:41:08.765Z,99701.11
2019-05-06T07:47:17.902Z,99687.75
2019-05-06T07:53:22.551Z,99681.71
2019-05-06T07:59:27.111Z,99681.72
2019-05-06T08:05:32.459Z,99686.52
2019-05-06T08:11:37.490Z,99689.91
2019-05-06T08:17:42.663Z,99682.52
2019-05-06T08:23:48.954Z,99675.02
2019-05-06T08:29:53.586Z,99673.30
2019-05-06T08:36:10.572Z,99667.41
2019-05-06T08:42:06.021Z,99662.84
2019-05-06T08:48:12.818Z,99668.39
2019-05-06T08:54:35.031Z,99656.58
2019-05-06T09:00:49.132Z,99663.09
2019-05-06T09:06:53.762Z,99657.27
2019-05-06T09:12:58.300Z,99664.02
2019-05-06T09:19:04.496Z,99651.66
2019-05-06T09:25:12.859Z,99653.57
2019-05-06T09:31:19.134Z,99651.59
2019-05-06T09:37:24.323Z,99635.28
2019-05-06T09:43:29.067Z,99636.72
2019-05-06T09:49:35.428Z,99635.86
2019-05-06T09:55:44.683Z,99635.24
2019-05-06T10:01:49.694Z,99636.70
2019-05-06T10:07:54.392Z,99641.59
2019-05-06T10:13:58.955Z,99638.97
2019-05-06T10:20:04.790Z,99632.52
2019-05-06T10:26:09.579Z,99624.70
2019-05-06T10:32:22.466Z,99625.13
2019-05-06T10:38:54.526Z,99620.08
2019-05-06T10:45:32.416Z,99617.85
2019-05-06T10:51:36.522Z,99614.06
2019-05-06T10:57:43.064Z,99617.92
2019-05-06T11:03:47.925Z,99614.70
2019-05-06T11:09:53.258Z,99605.00
2019-05-06T11:15:58.075Z,99600.45
2019-05-06T11:22:03.723Z,99596.48
2019-05-06T11:28:10.133Z,99597.19
2019-05-06T11:34:32.716Z,99593.34
2019-05-06T11:40:37.371Z,99596.30
2019-05-06T11:46:42.928Z,99597.87
2019-05-06T11:52:47.618Z,99598.31
2019-05-06T11:58:53.892Z,99594.27
2019-05-06T12:04:58.447Z,99603.17
2019-05-06T12:11:03.108Z,99600.57
2019-05-06T12:17:07.709Z,99594.32
2019-05-06T12:23:15.569Z,99590.90
2019-05-06T12:29:18.686Z,99587.00
2019-05-06T12:35:23.389Z,99590.43
2019-05-06T12:41:27.962Z,99591.80
2019-05-06T12:47:42.511Z,99599.98
2019-05-06T12:53:46.193Z,99590.74
2019-05-06T12:59:52.848Z,99578.51
2019-05-06T13:05:57.142Z,99584.63
2019-05-06T13:12:03.851Z,99582.47
2019-05-06T13:18:08.112Z,99589.72
2019-05-06T13:24:12.749Z,99587.73
2019-05-06T13:30:17.979Z,99584.92
2019-05-06T13:36:22.961Z,99572.53
2019-05-06T13:42:29.263Z,99583.42
2019-05-06T13:48:35.523Z,99576.91
2019-05-06T13:54:42.217Z,99576.89
2019-05-06T14:00:47.074Z,99574.56
2019-05-06T14:06:52.849Z,99562.41
2019-05-06T14:12:57.578Z,99562.18
2019-05-06T14:19:04.058Z,99565.47
2019-05-06T14:25:22.770Z,99565.42
2019-05-06T14:31:28.634Z,99560.66
2019-05-06T14:37:33.209Z,99560.06
2019-05-06T14:43:37.819Z,99554.19
2019-05-06T14:49:43.164Z,99551.41
2019-05-06T14:55:49.873Z,99553.27
2019-05-06T15:01:54.442Z,99553.77
2019-05-06T15:07:59.024Z,99559.31
2019-05-06T15:14:04.402Z,99561.44
2019-05-06T15:20:09.494Z,99551.97
2019-05-06T15:26:14.128Z,99544.15
2019-05-06T15:32:23.213Z,99548.23
2019-05-06T15:38:29.491Z,99541.79
2019-05-06T15:44:35.477Z,99546.88
2019-05-06T15:50:43.223Z,99547.08
2019-05-06T15:56:46.741Z,99552.02
2019-05-06T16:02:53.078Z,99546.98
2019-05-06T16:08:57.636Z,99554.62
2019-05-06T16:15:02.671Z,99549.34
2019-05-06T16:21:07.411Z,99544.25
2019-05-06T16:27:12.491Z,99546.45
2019-05-06T16:33:19.144Z,99553.02
2019-05-06T16:39:23.466Z,99546.89
2019-05-06T16:45:28.010Z,99546.59
2019-05-06T16:51:32.731Z,99542.91
2019-05-06T16:57:37.330Z,99538.23
2019-05-06T17:03:46.537Z,99542.97
2019-05-06T17:09:52.642Z,99544.42
2019-05-06T17:15:57.328Z,99548.81
2019-05-06T17:22:03.077Z,99544.87
2019-05-06T17:28:22.214Z,99537.19
2019-05-06T17:34:30.268Z,99531.92
2019-05-06T17:40:34.906Z,99525.43
2019-05-06T17:46:42.695Z,99529.26
2019-05-06T17:52:47.389Z,99528.55
2019-05-06T17:58:53.140Z,99538.25
2019-05-06T18:04:58.885Z,99535.98
2019-05-06T18:11:03.625Z,99543.45
2019-05-06T18:17:08.203Z,99545.81
2019-05-06T18:23:13.069Z,99551.20
2019-05-06T18:29:17.736Z,99554.11
2019-05-06T18:35:23.051Z,99552.05
2019-05-06T18:41:29.415Z,99550.47
2019-05-06T18:47:34.088Z,99565.69
2019-05-06T18:53:38.632Z,99557.61
2019-05-06T18:59:43.183Z,99563.66
2019-05-06T19:05:48.010Z,99571.61
2019-05-06T19:11:54.524Z,99583.81
2019-05-06T19:17:59.326Z,99581.28
2019-05-06T19:24:03.893Z,99584.59
2019-05-06T19:30:09.455Z,99592.09
2019-05-06T19:36:14.008Z,99597.40
2019-05-06T19:42:18.549Z,99588.73
2019-05-06T19:48:24.642Z,99590.87
2019-05-06T19:54:29.367Z,99597.05
2019-05-06T20:00:33.998Z,99597.18
2019-05-06T20:06:40.182Z,99590.59
2019-05-06T20:13:04.903Z,99592.88
2019-05-06T20:19:07.870Z,99592.25
2019-05-06T20:25:13.064Z,99593.31
2019-05-06T20:31:17.609Z,99596.58
2019-05-06T20:37:22.306Z,99597.06
2019-05-06T20:43:26.998Z,99591.22
2019-05-06T20:49:33.265Z,99592.75
2019-05-06T20:55:38.077Z,99590.47
2019-05-06T21:01:42.694Z,99583.53
2019-05-06T21:07:47.232Z,99588.02
2019-05-06T21:13:51.775Z,99577.44
2019-05-06T21:19:56.914Z,99575.61
2019-05-06T21:26:03.318Z,99575.97
2019-05-06T21:32:07.693Z,99571.80
2019-05-06T21:38:12.412Z,99571.91
2019-05-06T21:44:17.067Z,99579.27
2019-05-06T21:50:22.786Z,99585.91
2019-05-06T21:56:27.525Z,99571.25
2019-05-06T22:02:32.730Z,99566.45
2019-05-06T22:08:37.440Z,99575.77
2019-05-06T22:14:42.314Z,99572.45
2019-05-06T22:21:07.034Z,99572.88
2019-05-06T22:27:12.334Z,99567.23
2019-05-06T22:33:17.082Z,99566.70
2019-05-06T22:39:22.665Z,99573.73
2019-05-06T22:45:27.403Z,99569.69
2019-05-06T22:51:32.444Z,99565.08
2019-05-06T22:57:37.187Z,99557.14
2019-05-06T23:03:43.017Z,99549.61
2019-05-06T23:09:47.859Z,99551.23
2019-05-06T23:15:52.568Z,99558.56
2019-05-06T23:21:57.128Z,99558.31
2019-05-06T23:28:02.793Z,99558.83
2019-05-06T23:34:07.573Z,99555.75
2019-05-06T23:41:06.934Z,99545.86
2019-05-06T23:48:06.349Z,99544.50
2019-05-06T23:55:05.772Z,99549.48
